Map

Track Data

SID SEASON NUMBER BASIN SUBBASIN NAME ISO_TIME NATURE LAT LON WMO_WIND WMO_PRES WMO_AGENCY TRACK_TYPE DIST2LAND LANDFALL IFLAG USA_AGENCY USA_ATCF_ID USA_LAT USA_LON USA_RECORD USA_STATUS USA_WIND USA_PRES USA_SSHS USA_R34_NE USA_R34_SE USA_R34_SW USA_R34_NW USA_R50_NE USA_R50_SE USA_R50_SW USA_R50_NW USA_R64_NE USA_R64_SE USA_R64_SW USA_R64_NW USA_POCI USA_ROCI USA_RMW USA_EYE TOKYO_LAT TOKYO_LON TOKYO_GRADE TOKYO_WIND TOKYO_PRES TOKYO_R50_DIR TOKYO_R50_LONG TOKYO_R50_SHORT TOKYO_R30_DIR TOKYO_R30_LONG TOKYO_R30_SHORT TOKYO_LAND CMA_LAT CMA_LON CMA_CAT CMA_WIND CMA_PRES HKO_LAT HKO_LON HKO_CAT HKO_WIND HKO_PRES NEWDELHI_LAT NEWDELHI_LON NEWDELHI_GRADE NEWDELHI_WIND NEWDELHI_PRES NEWDELHI_CI NEWDELHI_DP NEWDELHI_POCI REUNION_LAT REUNION_LON REUNION_TYPE REUNION_WIND REUNION_PRES REUNION_TNUM REUNION_CI REUNION_RMW REUNION_R34_NE REUNION_R34_SE REUNION_R34_SW REUNION_R34_NW REUNION_R50_NE REUNION_R50_SE REUNION_R50_SW REUNION_R50_NW REUNION_R64_NE REUNION_R64_SE REUNION_R64_SW REUNION_R64_NW BOM_LAT BOM_LON BOM_TYPE BOM_WIND BOM_PRES BOM_TNUM BOM_CI BOM_RMW BOM_R34_NE BOM_R34_SE BOM_R34_SW BOM_R34_NW BOM_R50_NE BOM_R50_SE BOM_R50_SW BOM_R50_NW BOM_R64_NE BOM_R64_SE BOM_R64_SW BOM_R64_NW BOM_ROCI BOM_POCI BOM_EYE BOM_POS_METHOD BOM_PRES_METHOD NADI_LAT NADI_LON NADI_CAT NADI_WIND NADI_PRES WELLINGTON_LAT WELLINGTON_LON WELLINGTON_WIND WELLINGTON_PRES DS824_LAT DS824_LON DS824_STAGE DS824_WIND DS824_PRES TD9636_LAT TD9636_LON TD9636_STAGE TD9636_WIND TD9636_PRES TD9635_LAT TD9635_LON TD9635_WIND TD9635_PRES TD9635_ROCI NEUMANN_LAT NEUMANN_LON NEUMANN_CLASS NEUMANN_WIND NEUMANN_PRES MLC_LAT MLC_LON MLC_CLASS MLC_WIND MLC_PRES USA_GUST BOM_GUST BOM_GUST_PER REUNION_GUST REUNION_GUST_PER USA_SEAHGT USA_SEARAD_NE USA_SEARAD_SE USA_SEARAD_SW USA_SEARAD_NW STORM_SPEED STORM_DIR
1944206N13303 1944 40 NA NA NOT_NAMED 1944-07-24 06:00:00 TS 13.4000 -56.6000 35 hurdat_atl main 566 501 O_____________ hurdat_atl AL021944 13.4000 -56.6000 TS 35 0 17 280
1944206N13303 1944 40 NA NA NOT_NAMED 1944-07-24 09:00:00 TS 13.5504 -57.4749 main 500 446 P_____________ AL021944 13.5504 -57.4749 TS 37 0 18 280
1944206N13303 1944 40 NA NA NOT_NAMED 1944-07-24 12:00:00 TS 13.7000 -58.4000 40 hurdat_atl main 439 393 O_____________ hurdat_atl AL021944 13.7000 -58.4000 TS 40 0 19 279
1944206N13303 1944 40 NA NA NOT_NAMED 1944-07-24 15:00:00 TS 13.8499 -59.4001 main 388 374 P_____________ AL021944 13.8499 -59.4001 TS 42 0 20 279
1944206N13303 1944 40 NA CS NOT_NAMED 1944-07-24 18:00:00 TS 14.0000 -60.4000 45 hurdat_atl main 375 370 O_____________ hurdat_atl AL021944 14.0000 -60.4000 TS 45 0 19 279
1944206N13303 1944 40 NA CS NOT_NAMED 1944-07-24 21:00:00 TS 14.1421 -61.3227 main 380 380 P_____________ AL021944 14.1421 -61.3227 TS 47 0 18 280
1944206N13303 1944 40 NA CS NOT_NAMED 1944-07-25 00:00:00 TS 14.3000 -62.2000 50 hurdat_atl main 403 403 O_____________ hurdat_atl AL021944 14.3000 -62.2000 TS 50 0 17 282
1944206N13303 1944 40 NA CS NOT_NAMED 1944-07-25 03:00:00 TS 14.4921 -63.0576 main 425 421 P_____________ AL021944 14.4921 -63.0576 TS 52 0 17 284
1944206N13303 1944 40 NA CS NOT_NAMED 1944-07-25 06:00:00 TS 14.7000 -63.9000 55 hurdat_atl main 421 366 O_____________ hurdat_atl AL021944 14.7000 -63.9000 TS 55 0 17 284
1944206N13303 1944 40 NA CS NOT_NAMED 1944-07-25 09:00:00 TS 14.8922 -64.7502 main 362 319 P_____________ AL021944 14.8922 -64.7502 TS 55 0 17 284
1944206N13303 1944 40 NA CS NOT_NAMED 1944-07-25 12:00:00 TS 15.1000 -65.6000 55 hurdat_atl main 319 290 O_____________ hurdat_atl AL021944 15.1000 -65.6000 TS 55 0 17 285
1944206N13303 1944 40 NA CS NOT_NAMED 1944-07-25 15:00:00 TS 15.3422 -66.4501 main 292 257 P_____________ AL021944 15.3422 -66.4501 TS 55 0 17 287
1944206N13303 1944 40 NA CS NOT_NAMED 1944-07-25 18:00:00 TS 15.6000 -67.3000 55 hurdat_atl main 257 243 O_____________ hurdat_atl AL021944 15.6000 -67.3000 TS 55 0 17 288
1944206N13303 1944 40 NA CS NOT_NAMED 1944-07-25 21:00:00 TS 15.8647 -68.1500 main 247 235 P_____________ AL021944 15.8647 -68.1500 TS 55 0 17 287
1944206N13303 1944 40 NA CS NOT_NAMED 1944-07-26 00:00:00 TS 16.1000 -69.0000 55 hurdat_atl main 235 216 O_____________ hurdat_atl AL021944 16.1000 -69.0000 TS 55 0 17 284
1944206N13303 1944 40 NA CS NOT_NAMED 1944-07-26 03:00:00 TS 16.2721 -69.8427 main 216 153 P_____________ AL021944 16.2721 -69.8427 TS 55 0 17 280
1944206N13303 1944 40 NA CS NOT_NAMED 1944-07-26 06:00:00 TS 16.4000 -70.7000 55 hurdat_atl main 153 123 O_____________ hurdat_atl AL021944 16.4000 -70.7000 TS 55 0 17 279
1944206N13303 1944 40 NA CS NOT_NAMED 1944-07-26 09:00:00 TS 16.5221 -71.5850 main 124 123 P_____________ AL021944 16.5221 -71.5850 TS 55 0 17 277
1944206N13303 1944 40 NA CS NOT_NAMED 1944-07-26 12:00:00 TS 16.6000 -72.5000 55 hurdat_atl main 161 161 O_____________ hurdat_atl AL021944 16.6000 -72.5000 TS 55 0 18 273
1944206N13303 1944 40 NA CS NOT_NAMED 1944-07-26 15:00:00 TS 16.6146 -73.4352 main 162 156 P_____________ AL021944 16.6146 -73.4352 TS 52 0 18 270
1944206N13303 1944 40 NA CS NOT_NAMED 1944-07-26 18:00:00 TS 16.6000 -74.4000 50 hurdat_atl main 165 165 O_____________ hurdat_atl AL021944 16.6000 -74.4000 TS 50 0 19 269
1944206N13303 1944 40 NA CS NOT_NAMED 1944-07-26 21:00:00 TS 16.5847 -75.4002 main 168 145 P_____________ AL021944 16.5847 -75.4002 TS 47 0 19 270
1944206N13303 1944 40 NA CS NOT_NAMED 1944-07-27 00:00:00 TS 16.6000 -76.4000 45 hurdat_atl main 145 111 O_____________ hurdat_atl AL021944 16.6000 -76.4000 TS 45 0 19 273
1944206N13303 1944 40 NA CS NOT_NAMED 1944-07-27 03:00:00 TS 16.6847 -77.3723 main 113 113 P_____________ AL021944 16.6847 -77.3723 TS 40 0 18 276
1944206N13303 1944 40 NA CS NOT_NAMED 1944-07-27 06:00:00 TS 16.8000 -78.3000 35 hurdat_atl main 138 138 O_____________ hurdat_atl AL021944 16.8000 -78.3000 TS 35 0 17 277
1944206N13303 1944 40 NA CS NOT_NAMED 1944-07-27 09:00:00 TS 16.8995 -79.1726 main 168 168 P_____________ AL021944 16.8995 -79.1726 TS 32 -1 16 277
1944206N13303 1944 40 NA CS NOT_NAMED 1944-07-27 12:00:00 TS 17.0000 -80.0000 30 hurdat_atl main 216 216 O_____________ hurdat_atl AL021944 17.0000 -80.0000 TD 30 -1 16 277
1944206N13303 1944 40 NA CS NOT_NAMED 1944-07-27 15:00:00 TS 17.1007 -80.8048 main 282 282 P_____________ AL021944 17.1007 -80.8048 TD 27 -1 15 277
1944206N13303 1944 40 NA CS NOT_NAMED 1944-07-27 18:00:00 TS 17.2000 -81.6000 25 hurdat_atl main 286 O_____________ hurdat_atl AL021944 17.2000 -81.6000 TD 25 -1 15 277

About IBTrACS Database

This database is a web-friendly format of International Best Track Archive for Climate Stewardship (IBTrACS), a global best track data archive curated by NOAA dating back to 1842.

Updated: 2021-12-06